sensor_id;sensor_type;location;lat;lon;timestamp;temperature;humidity
66144;SHT31;52947;50.842;6.084;2023-03-14T00:00:24;11.10;83.18
66144;SHT31;52947;50.842;6.084;2023-03-14T00:02:52;11.06;83.32
66144;SHT31;52947;50.842;6.084;2023-03-14T00:05:20;11.04;83.42
66144;SHT31;52947;50.842;6.084;2023-03-14T00:07:48;11.00;83.91
66144;SHT31;52947;50.842;6.084;2023-03-14T00:10:16;10.33;83.84
66144;SHT31;52947;50.842;6.084;2023-03-14T00:12:45;9.61;85.45
66144;SHT31;52947;50.842;6.084;2023-03-14T00:15:14;9.36;86.54
66144;SHT31;52947;50.842;6.084;2023-03-14T00:17:43;9.17;87.62
66144;SHT31;52947;50.842;6.084;2023-03-14T00:20:12;9.00;88.07
66144;SHT31;52947;50.842;6.084;2023-03-14T00:22:40;8.85;89.00
66144;SHT31;52947;50.842;6.084;2023-03-14T00:25:10;8.75;89.42
66144;SHT31;52947;50.842;6.084;2023-03-14T00:27:38;8.83;89.45
66144;SHT31;52947;50.842;6.084;2023-03-14T00:30:08;8.89;89.89
66144;SHT31;52947;50.842;6.084;2023-03-14T00:32:38;8.89;90.06
66144;SHT31;52947;50.842;6.084;2023-03-14T00:35:08;8.88;90.37
66144;SHT31;52947;50.842;6.084;2023-03-14T00:37:36;8.93;90.44
66144;SHT31;52947;50.842;6.084;2023-03-14T00:40:06;9.00;89.92
66144;SHT31;52947;50.842;6.084;2023-03-14T00:42:34;9.00;89.93
66144;SHT31;52947;50.842;6.084;2023-03-14T00:45:02;9.00;90.07
66144;SHT31;52947;50.842;6.084;2023-03-14T00:47:33;9.02;89.49
66144;SHT31;52947;50.842;6.084;2023-03-14T00:50:02;9.03;89.43
66144;SHT31;52947;50.842;6.084;2023-03-14T00:52:30;9.36;90.56
66144;SHT31;52947;50.842;6.084;2023-03-14T00:54:58;9.48;87.84
66144;SHT31;52947;50.842;6.084;2023-03-14T00:57:26;9.62;88.82
66144;SHT31;52947;50.842;6.084;2023-03-14T00:59:54;9.67;87.78
66144;SHT31;52947;50.842;6.084;2023-03-14T01:02:21;9.50;87.32
66144;SHT31;52947;50.842;6.084;2023-03-14T01:04:49;9.33;87.97
66144;SHT31;52947;50.842;6.084;2023-03-14T01:07:19;9.22;88.53
66144;SHT31;52947;50.842;6.084;2023-03-14T01:09:47;9.22;88.44
66144;SHT31;52947;50.842;6.084;2023-03-14T01:12:14;9.19;88.26
66144;SHT31;52947;50.842;6.084;2023-03-14T01:14:42;9.17;88.63
66144;SHT31;52947;50.842;6.084;2023-03-14T01:17:10;9.17;88.38
66144;SHT31;52947;50.842;6.084;2023-03-14T01:19:38;9.20;88.16
66144;SHT31;52947;50.842;6.084;2023-03-14T01:22:06;9.20;88.21
66144;SHT31;52947;50.842;6.084;2023-03-14T01:24:36;9.19;88.28
66144;SHT31;52947;50.842;6.084;2023-03-14T01:27:04;9.15;88.31
66144;SHT31;52947;50.842;6.084;2023-03-14T01:29:32;9.09;88.47
66144;SHT31;52947;50.842;6.084;2023-03-14T01:32:00;9.09;88.47
66144;SHT31;52947;50.842;6.084;2023-03-14T01:34:28;9.15;88.09
66144;SHT31;52947;50.842;6.084;2023-03-14T01:36:56;9.16;88.15
66144;SHT31;52947;50.842;6.084;2023-03-14T01:39:24;9.19;88.34
66144;SHT31;52947;50.842;6.084;2023-03-14T01:41:53;9.19;88.41
66144;SHT31;52947;50.842;6.084;2023-03-14T01:44:21;9.22;88.44
66144;SHT31;52947;50.842;6.084;2023-03-14T01:46:49;9.24;88.19
66144;SHT31;52947;50.842;6.084;2023-03-14T01:49:23;9.24;88.37
66144;SHT31;52947;50.842;6.084;2023-03-14T01:52:01;9.26;88.33
66144;SHT31;52947;50.842;6.084;2023-03-14T01:54:32;9.30;88.37
66144;SHT31;52947;50.842;6.084;2023-03-14T01:57:06;9.29;88.41
66144;SHT31;52947;50.842;6.084;2023-03-14T01:59:35;9.27;88.37
66144;SHT31;52947;50.842;6.084;2023-03-14T02:02:05;9.30;88.53
66144;SHT31;52947;50.842;6.084;2023-03-14T02:04:35;9.33;88.57
66144;SHT31;52947;50.842;6.084;2023-03-14T02:07:09;9.30;88.63
66144;SHT31;52947;50.842;6.084;2023-03-14T02:09:44;9.30;88.75
66144;SHT31;52947;50.842;6.084;2023-03-14T02:12:21;9.33;88.50
66144;SHT31;52947;50.842;6.084;2023-03-14T02:15:09;9.36;88.43
66144;SHT31;52947;50.842;6.084;2023-03-14T02:17:50;9.40;88.52
66144;SHT31;52947;50.842;6.084;2023-03-14T02:20:33;9.41;88.54
66144;SHT31;52947;50.842;6.084;2023-03-14T02:23:03;9.46;88.50
66144;SHT31;52947;50.842;6.084;2023-03-14T02:25:39;9.47;88.56
66144;SHT31;52947;50.842;6.084;2023-03-14T02:28:10;9.52;88.21
66144;SHT31;52947;50.842;6.084;2023-03-14T02:30:39;9.52;88.41
66144;SHT31;52947;50.842;6.084;2023-03-14T02:33:08;9.54;88.41
66144;SHT31;52947;50.842;6.084;2023-03-14T02:35:40;9.48;88.60
66144;SHT31;52947;50.842;6.084;2023-03-14T02:38:15;9.47;88.74
66144;SHT31;52947;50.842;6.084;2023-03-14T02:40:45;9.50;88.48
66144;SHT31;52947;50.842;6.084;2023-03-14T02:43:15;9.50;88.34
66144;SHT31;52947;50.842;6.084;2023-03-14T02:45:49;9.54;88.21
66144;SHT31;52947;50.842;6.084;2023-03-14T02:48:23;9.52;88.35
66144;SHT31;52947;50.842;6.084;2023-03-14T02:50:54;9.43;89.13
66144;SHT31;52947;50.842;6.084;2023-03-14T02:53:26;9.31;89.58
66144;SHT31;52947;50.842;6.084;2023-03-14T02:55:56;9.23;90.09
66144;SHT31;52947;50.842;6.084;2023-03-14T02:58:28;9.15;90.72
66144;SHT31;52947;50.842;6.084;2023-03-14T03:01:05;9.06;91.32
66144;SHT31;52947;50.842;6.084;2023-03-14T03:03:33;9.00;91.60
66144;SHT31;52947;50.842;6.084;2023-03-14T03:06:01;8.96;91.87
66144;SHT31;52947;50.842;6.084;2023-03-14T03:08:29;8.97;92.00
66144;SHT31;52947;50.842;6.084;2023-03-14T03:10:58;8.90;92.12
66144;SHT31;52947;50.842;6.084;2023-03-14T03:13:30;8.88;92.16
66144;SHT31;52947;50.842;6.084;2023-03-14T03:16:01;8.95;91.76
66144;SHT31;52947;50.842;6.084;2023-03-14T03:18:29;8.92;91.93
66144;SHT31;52947;50.842;6.084;2023-03-14T03:21:00;8.92;91.99
66144;SHT31;52947;50.842;6.084;2023-03-14T03:23:28;8.89;91.85
66144;SHT31;52947;50.842;6.084;2023-03-14T03:25:56;8.89;91.92
66144;SHT31;52947;50.842;6.084;2023-03-14T03:28:25;8.89;91.96
66144;SHT31;52947;50.842;6.084;2023-03-14T03:30:55;8.93;91.89
66144;SHT31;52947;50.842;6.084;2023-03-14T03:33:23;8.92;91.84
66144;SHT31;52947;50.842;6.084;2023-03-14T03:35:51;8.92;91.91
66144;SHT31;52947;50.842;6.084;2023-03-14T03:38:28;8.89;92.35
66144;SHT31;52947;50.842;6.084;2023-03-14T03:40:58;8.86;92.24
66144;SHT31;52947;50.842;6.084;2023-03-14T03:43:27;8.83;92.33
66144;SHT31;52947;50.842;6.084;2023-03-14T03:45:57;8.83;92.36
66144;SHT31;52947;50.842;6.084;2023-03-14T03:48:25;8.80;92.22
66144;SHT31;52947;50.842;6.084;2023-03-14T03:50:53;8.85;92.00
66144;SHT31;52947;50.842;6.084;2023-03-14T03:53:22;8.85;91.84
66144;SHT31;52947;50.842;6.084;2023-03-14T03:56:02;8.85;91.69
66144;SHT31;52947;50.842;6.084;2023-03-14T03:58:30;8.86;91.88
66144;SHT31;52947;50.842;6.084;2023-03-14T04:01:00;8.90;91.91
66144;SHT31;52947;50.842;6.084;2023-03-14T04:03:28;8.88;92.04
66144;SHT31;52947;50.842;6.084;2023-03-14T04:06:00;8.83;92.11
66144;SHT31;52947;50.842;6.084;2023-03-14T04:08:29;8.85;91.94
66144;SHT31;52947;50.842;6.084;2023-03-14T04:10:58;8.85;92.07
66144;SHT31;52947;50.842;6.084;2023-03-14T04:14:05;8.85;92.08
66144;SHT31;52947;50.842;6.084;2023-03-14T04:16:34;8.88;91.77
66144;SHT31;52947;50.842;6.084;2023-03-14T04:19:09;8.95;91.18
66144;SHT31;52947;50.842;6.084;2023-03-14T04:21:37;8.96;91.36
66144;SHT31;52947;50.842;6.084;2023-03-14T04:24:09;8.97;91.00
66144;SHT31;52947;50.842;6.084;2023-03-14T04:26:37;8.97;90.71
66144;SHT31;52947;50.842;6.084;2023-03-14T04:29:07;8.97;90.84
66144;SHT31;52947;50.842;6.084;2023-03-14T04:31:39;9.06;90.10
66144;SHT31;52947;50.842;6.084;2023-03-14T04:34:08;9.09;90.10
66144;SHT31;52947;50.842;6.084;2023-03-14T04:36:41;9.13;89.75
66144;SHT31;52947;50.842;6.084;2023-03-14T04:39:14;9.13;89.83
66144;SHT31;52947;50.842;6.084;2023-03-14T04:41:51;9.12;89.69
66144;SHT31;52947;50.842;6.084;2023-03-14T04:44:19;9.06;90.33
66144;SHT31;52947;50.842;6.084;2023-03-14T04:46:51;8.97;90.62
66144;SHT31;52947;50.842;6.084;2023-03-14T04:49:20;8.95;90.79
66144;SHT31;52947;50.842;6.084;2023-03-14T04:51:48;8.95;90.82
66144;SHT31;52947;50.842;6.084;2023-03-14T04:54:17;8.92;90.95
66144;SHT31;52947;50.842;6.084;2023-03-14T04:56:49;8.93;90.96
66144;SHT31;52947;50.842;6.084;2023-03-14T04:59:17;8.92;91.08
66144;SHT31;52947;50.842;6.084;2023-03-14T05:01:46;8.89;90.98
66144;SHT31;52947;50.842;6.084;2023-03-14T05:04:54;8.89;91.03
66144;SHT31;52947;50.842;6.084;2023-03-14T05:07:41;8.86;91.32
66144;SHT31;52947;50.842;6.084;2023-03-14T05:10:35;8.82;91.78
66144;SHT31;52947;50.842;6.084;2023-03-14T05:13:22;8.83;91.67
66144;SHT31;52947;50.842;6.084;2023-03-14T05:16:10;8.78;91.74
66144;SHT31;52947;50.842;6.084;2023-03-14T05:18:48;8.78;91.82
66144;SHT31;52947;50.842;6.084;2023-03-14T05:21:38;8.75;91.93
66144;SHT31;52947;50.842;6.084;2023-03-14T05:24:24;8.73;91.67
66144;SHT31;52947;50.842;6.084;2023-03-14T05:27:10;8.73;91.81
66144;SHT31;52947;50.842;6.084;2023-03-14T05:29:59;8.73;91.35
66144;SHT31;52947;50.842;6.084;2023-03-14T05:32:42;8.71;91.52
66144;SHT31;52947;50.842;6.084;2023-03-14T05:35:32;8.76;91.34
66144;SHT31;52947;50.842;6.084;2023-03-14T05:38:12;8.79;91.35
66144;SHT31;52947;50.842;6.084;2023-03-14T05:41:03;8.71;91.69
66144;SHT31;52947;50.842;6.084;2023-03-14T05:43:37;8.68;91.93
66144;SHT31;52947;50.842;6.084;2023-03-14T05:46:24;8.65;91.79
66144;SHT31;52947;50.842;6.084;2023-03-14T05:49:02;8.69;91.73
66144;SHT31;52947;50.842;6.084;2023-03-14T05:51:56;8.72;91.83
66144;SHT31;52947;50.842;6.084;2023-03-14T05:54:46;8.76;91.77
66144;SHT31;52947;50.842;6.084;2023-03-14T05:57:33;8.83;91.85
66144;SHT31;52947;50.842;6.084;2023-03-14T06:00:16;8.82;91.82
66144;SHT31;52947;50.842;6.084;2023-03-14T06:03:04;8.86;91.90
66144;SHT31;52947;50.842;6.084;2023-03-14T06:05:36;8.90;91.89
66144;SHT31;52947;50.842;6.084;2023-03-14T06:08:05;8.89;91.97
66144;SHT31;52947;50.842;6.084;2023-03-14T06:10:35;8.96;91.98
66144;SHT31;52947;50.842;6.084;2023-03-14T06:13:04;8.99;91.79
66144;SHT31;52947;50.842;6.084;2023-03-14T06:15:33;8.96;92.04
66144;SHT31;52947;50.842;6.084;2023-03-14T06:18:03;8.99;92.17
66144;SHT31;52947;50.842;6.084;2023-03-14T06:20:32;9.38;92.27
66144;SHT31;52947;50.842;6.084;2023-03-14T06:23:02;9.55;91.87
66144;SHT31;52947;50.842;6.084;2023-03-14T06:25:31;9.55;91.04
66144;SHT31;52947;50.842;6.084;2023-03-14T06:28:01;9.68;91.06
66144;SHT31;52947;50.842;6.084;2023-03-14T06:30:29;9.67;90.63
66144;SHT31;52947;50.842;6.084;2023-03-14T06:32:57;9.70;90.71
66144;SHT31;52947;50.842;6.084;2023-03-14T06:35:27;9.77;90.45
66144;SHT31;52947;50.842;6.084;2023-03-14T06:37:55;9.75;90.23
66144;SHT31;52947;50.842;6.084;2023-03-14T06:40:23;9.84;90.78
66144;SHT31;52947;50.842;6.084;2023-03-14T06:42:58;9.94;90.02
66144;SHT31;52947;50.842;6.084;2023-03-14T06:45:30;9.88;89.74
66144;SHT31;52947;50.842;6.084;2023-03-14T06:48:00;9.91;89.81
66144;SHT31;52947;50.842;6.084;2023-03-14T06:50:36;9.94;89.74
66144;SHT31;52947;50.842;6.084;2023-03-14T06:53:04;10.03;89.72
66144;SHT31;52947;50.842;6.084;2023-03-14T06:55:36;10.03;89.10
66144;SHT31;52947;50.842;6.084;2023-03-14T06:58:04;10.01;89.45
66144;SHT31;52947;50.842;6.084;2023-03-14T07:00:41;9.97;89.33
66144;SHT31;52947;50.842;6.084;2023-03-14T07:03:13;10.03;89.29
66144;SHT31;52947;50.842;6.084;2023-03-14T07:05:44;9.99;89.49
66144;SHT31;52947;50.842;6.084;2023-03-14T07:08:12;10.02;89.79
66144;SHT31;52947;50.842;6.084;2023-03-14T07:10:40;9.82;90.21
66144;SHT31;52947;50.842;6.084;2023-03-14T07:13:08;9.78;90.61
66144;SHT31;52947;50.842;6.084;2023-03-14T07:15:54;9.78;90.45
66144;SHT31;52947;50.842;6.084;2023-03-14T07:18:23;9.84;90.84
66144;SHT31;52947;50.842;6.084;2023-03-14T07:20:51;9.98;90.49
66144;SHT31;52947;50.842;6.084;2023-03-14T07:23:19;10.01;89.99
66144;SHT31;52947;50.842;6.084;2023-03-14T07:25:50;10.01;90.48
66144;SHT31;52947;50.842;6.084;2023-03-14T07:28:19;9.92;90.17
66144;SHT31;52947;50.842;6.084;2023-03-14T07:30:50;9.95;90.03
66144;SHT31;52947;50.842;6.084;2023-03-14T07:33:26;10.02;90.13
66144;SHT31;52947;50.842;6.084;2023-03-14T07:35:53;9.95;89.99
66144;SHT31;52947;50.842;6.084;2023-03-14T07:38:22;9.95;90.33
66144;SHT31;52947;50.842;6.084;2023-03-14T07:41:13;9.84;90.33
66144;SHT31;52947;50.842;6.084;2023-03-14T07:43:51;9.91;90.12
66144;SHT31;52947;50.842;6.084;2023-03-14T07:46:20;10.01;89.89
66144;SHT31;52947;50.842;6.084;2023-03-14T07:48:50;10.03;89.76
66144;SHT31;52947;50.842;6.084;2023-03-14T07:51:18;10.13;90.07
66144;SHT31;52947;50.842;6.084;2023-03-14T07:53:45;10.13;90.04
66144;SHT31;52947;50.842;6.084;2023-03-14T07:56:13;10.33;89.47
66144;SHT31;52947;50.842;6.084;2023-03-14T07:58:41;10.39;88.72
66144;SHT31;52947;50.842;6.084;2023-03-14T08:01:09;10.39;89.10
66144;SHT31;52947;50.842;6.084;2023-03-14T08:03:37;10.52;89.29
66144;SHT31;52947;50.842;6.084;2023-03-14T08:06:07;10.33;89.93
66144;SHT31;52947;50.842;6.084;2023-03-14T08:08:34;10.18;90.23
66144;SHT31;52947;50.842;6.084;2023-03-14T08:11:03;10.39;90.29
66144;SHT31;52947;50.842;6.084;2023-03-14T08:13:31;10.28;90.48
66144;SHT31;52947;50.842;6.084;2023-03-14T08:16:00;10.33;90.32
66144;SHT31;52947;50.842;6.084;2023-03-14T08:18:28;10.28;90.38
66144;SHT31;52947;50.842;6.084;2023-03-14T08:20:56;10.30;89.92
66144;SHT31;52947;50.842;6.084;2023-03-14T08:23:25;10.28;90.28
66144;SHT31;52947;50.842;6.084;2023-03-14T08:25:53;10.69;89.63
66144;SHT31;52947;50.842;6.084;2023-03-14T08:28:21;10.64;90.02
66144;SHT31;52947;50.842;6.084;2023-03-14T08:30:49;10.69;89.78
66144;SHT31;52947;50.842;6.084;2023-03-14T08:33:17;10.83;89.29
66144;SHT31;52947;50.842;6.084;2023-03-14T08:35:45;10.59;90.06
66144;SHT31;52947;50.842;6.084;2023-03-14T08:38:14;10.39;90.39
66144;SHT31;52947;50.842;6.084;2023-03-14T08:40:43;10.18;90.79
66144;SHT31;52947;50.842;6.084;2023-03-14T08:43:11;10.09;90.76
66144;SHT31;52947;50.842;6.084;2023-03-14T08:45:39;10.15;91.16
66144;SHT31;52947;50.842;6.084;2023-03-14T08:48:07;10.01;89.73
66144;SHT31;52947;50.842;6.084;2023-03-14T08:50:34;9.65;89.78
66144;SHT31;52947;50.842;6.084;2023-03-14T08:53:02;9.36;89.25
66144;SHT31;52947;50.842;6.084;2023-03-14T08:55:30;9.20;88.89
66144;SHT31;52947;50.842;6.084;2023-03-14T08:58:00;8.95;88.85
66144;SHT31;52947;50.842;6.084;2023-03-14T09:00:28;8.85;89.68
66144;SHT31;52947;50.842;6.084;2023-03-14T09:02:56;8.85;89.16
66144;SHT31;52947;50.842;6.084;2023-03-14T09:05:24;8.56;89.28
66144;SHT31;52947;50.842;6.084;2023-03-14T09:07:51;8.64;89.33
66144;SHT31;52947;50.842;6.084;2023-03-14T09:10:19;8.56;89.32
66144;SHT31;52947;50.842;6.084;2023-03-14T09:12:47;8.65;89.67
66144;SHT31;52947;50.842;6.084;2023-03-14T09:15:16;8.47;89.58
66144;SHT31;52947;50.842;6.084;2023-03-14T09:17:44;8.49;90.41
66144;SHT31;52947;50.842;6.084;2023-03-14T09:20:12;8.24;89.89
66144;SHT31;52947;50.842;6.084;2023-03-14T09:22:41;8.47;89.46
66144;SHT31;52947;50.842;6.084;2023-03-14T09:25:09;8.37;89.53
66144;SHT31;52947;50.842;6.084;2023-03-14T09:27:37;8.44;89.19
66144;SHT31;52947;50.842;6.084;2023-03-14T09:30:06;8.34;89.06
66144;SHT31;52947;50.842;6.084;2023-03-14T09:32:36;8.35;88.53
66144;SHT31;52947;50.842;6.084;2023-03-14T09:35:05;8.16;88.47
66144;SHT31;52947;50.842;6.084;2023-03-14T09:37:33;8.23;88.02
66144;SHT31;52947;50.842;6.084;2023-03-14T09:40:00;8.24;88.38
66144;SHT31;52947;50.842;6.084;2023-03-14T09:42:36;8.24;87.23
66144;SHT31;52947;50.842;6.084;2023-03-14T09:45:10;8.28;87.45
66144;SHT31;52947;50.842;6.084;2023-03-14T09:47:40;8.06;87.89
66144;SHT31;52947;50.842;6.084;2023-03-14T09:50:25;8.03;88.38
66144;SHT31;52947;50.842;6.084;2023-03-14T09:52:56;8.13;89.00
66144;SHT31;52947;50.842;6.084;2023-03-14T09:55:26;8.11;88.89
66144;SHT31;52947;50.842;6.084;2023-03-14T09:57:57;7.90;89.19
66144;SHT31;52947;50.842;6.084;2023-03-14T10:00:27;8.01;89.11
66144;SHT31;52947;50.842;6.084;2023-03-14T10:03:14;8.28;89.57
66144;SHT31;52947;50.842;6.084;2023-03-14T10:05:47;8.13;88.96
66144;SHT31;52947;50.842;6.084;2023-03-14T10:08:15;8.07;88.43
66144;SHT31;52947;50.842;6.084;2023-03-14T10:10:43;7.97;88.81
66144;SHT31;52947;50.842;6.084;2023-03-14T10:13:16;8.41;89.16
66144;SHT31;52947;50.842;6.084;2023-03-14T10:15:48;9.09;86.79
66144;SHT31;52947;50.842;6.084;2023-03-14T10:18:17;9.54;86.70
66144;SHT31;52947;50.842;6.084;2023-03-14T10:20:46;9.12;85.94
66144;SHT31;52947;50.842;6.084;2023-03-14T10:23:24;8.82;86.34
66144;SHT31;52947;50.842;6.084;2023-03-14T10:26:07;8.93;87.57
66144;SHT31;52947;50.842;6.084;2023-03-14T10:28:41;8.76;87.32
66144;SHT31;52947;50.842;6.084;2023-03-14T10:31:10;8.83;87.18
66144;SHT31;52947;50.842;6.084;2023-03-14T10:33:40;8.85;87.19
66144;SHT31;52947;50.842;6.084;2023-03-14T10:36:17;8.89;87.83
66144;SHT31;52947;50.842;6.084;2023-03-14T10:38:47;9.17;86.72
66144;SHT31;52947;50.842;6.084;2023-03-14T10:41:17;9.30;85.56
66144;SHT31;52947;50.842;6.084;2023-03-14T10:43:49;9.65;85.43
66144;SHT31;52947;50.842;6.084;2023-03-14T10:46:19;9.50;85.80
66144;SHT31;52947;50.842;6.084;2023-03-14T10:49:07;9.64;86.63
66144;SHT31;52947;50.842;6.084;2023-03-14T10:51:36;8.99;85.38
66144;SHT31;52947;50.842;6.084;2023-03-14T10:54:12;8.80;86.05
66144;SHT31;52947;50.842;6.084;2023-03-14T10:56:40;8.52;85.71
66144;SHT31;52947;50.842;6.084;2023-03-14T10:59:13;8.56;86.59
66144;SHT31;52947;50.842;6.084;2023-03-14T11:01:47;8.66;84.48
66144;SHT31;52947;50.842;6.084;2023-03-14T11:04:31;9.16;85.11
66144;SHT31;52947;50.842;6.084;2023-03-14T11:07:09;9.20;85.24
66144;SHT31;52947;50.842;6.084;2023-03-14T11:09:45;9.31;85.03
66144;SHT31;52947;50.842;6.084;2023-03-14T11:12:32;9.98;83.32
66144;SHT31;52947;50.842;6.084;2023-03-14T11:15:08;10.74;81.02
66144;SHT31;52947;50.842;6.084;2023-03-14T11:17:41;11.22;80.79
66144;SHT31;52947;50.842;6.084;2023-03-14T11:20:26;11.68;79.63
66144;SHT31;52947;50.842;6.084;2023-03-14T11:23:02;11.71;76.09
66144;SHT31;52947;50.842;6.084;2023-03-14T11:25:35;11.46;78.76
66144;SHT31;52947;50.842;6.084;2023-03-14T11:28:13;11.38;78.63
66144;SHT31;52947;50.842;6.084;2023-03-14T11:30:50;11.34;77.57
66144;SHT31;52947;50.842;6.084;2023-03-14T11:33:22;10.61;80.17
66144;SHT31;52947;50.842;6.084;2023-03-14T11:35:59;10.09;80.74
66144;SHT31;52947;50.842;6.084;2023-03-14T11:38:33;9.71;82.70
66144;SHT31;52947;50.842;6.084;2023-03-14T11:41:04;9.10;82.83
66144;SHT31;52947;50.842;6.084;2023-03-14T11:43:38;8.86;84.07
66144;SHT31;52947;50.842;6.084;2023-03-14T11:46:11;8.69;85.04
66144;SHT31;52947;50.842;6.084;2023-03-14T11:48:45;8.42;85.45
66144;SHT31;52947;50.842;6.084;2023-03-14T11:51:21;8.18;87.80
66144;SHT31;52947;50.842;6.084;2023-03-14T11:53:57;7.83;88.19
66144;SHT31;52947;50.842;6.084;2023-03-14T11:56:31;7.80;88.01
66144;SHT31;52947;50.842;6.084;2023-03-14T11:59:03;7.72;86.97
66144;SHT31;52947;50.842;6.084;2023-03-14T12:01:49;7.63;87.78
66144;SHT31;52947;50.842;6.084;2023-03-14T12:04:24;7.66;88.05
66144;SHT31;52947;50.842;6.084;2023-03-14T12:06:57;7.62;86.98
66144;SHT31;52947;50.842;6.084;2023-03-14T12:09:29;7.84;87.91
66144;SHT31;52947;50.842;6.084;2023-03-14T12:12:00;7.83;87.48
66144;SHT31;52947;50.842;6.084;2023-03-14T12:14:30;8.01;87.24
66144;SHT31;52947;50.842;6.084;2023-03-14T12:17:05;7.97;87.11
66144;SHT31;52947;50.842;6.084;2023-03-14T12:19:36;8.18;86.68
66144;SHT31;52947;50.842;6.084;2023-03-14T12:22:23;8.44;87.43
66144;SHT31;52947;50.842;6.084;2023-03-14T12:24:56;8.35;86.31
66144;SHT31;52947;50.842;6.084;2023-03-14T12:27:45;8.28;86.90
66144;SHT31;52947;50.842;6.084;2023-03-14T12:30:23;8.76;86.28
66144;SHT31;52947;50.842;6.084;2023-03-14T12:35:59;8.62;85.67
66144;SHT31;52947;50.842;6.084;2023-03-14T12:38:40;8.68;85.66
66144;SHT31;52947;50.842;6.084;2023-03-14T12:41:14;7.82;85.56
66144;SHT31;52947;50.842;6.084;2023-03-14T12:43:45;7.55;84.50
66144;SHT31;52947;50.842;6.084;2023-03-14T12:46:22;7.29;86.65
66144;SHT31;52947;50.842;6.084;2023-03-14T12:48:54;7.15;85.01
66144;SHT31;52947;50.842;6.084;2023-03-14T12:51:29;7.65;88.04
66144;SHT31;52947;50.842;6.084;2023-03-14T12:54:14;7.48;85.53
66144;SHT31;52947;50.842;6.084;2023-03-14T12:56:53;7.77;85.14
66144;SHT31;52947;50.842;6.084;2023-03-14T12:59:46;7.96;84.80
66144;SHT31;52947;50.842;6.084;2023-03-14T13:02:25;7.84;83.85
66144;SHT31;52947;50.842;6.084;2023-03-14T13:05:01;7.83;84.18
66144;SHT31;52947;50.842;6.084;2023-03-14T13:08:03;7.84;85.49
66144;SHT31;52947;50.842;6.084;2023-03-14T13:10:42;8.01;85.78
66144;SHT31;52947;50.842;6.084;2023-03-14T13:13:20;8.33;85.87
66144;SHT31;52947;50.842;6.084;2023-03-14T13:15:49;8.42;83.74
66144;SHT31;52947;50.842;6.084;2023-03-14T13:18:27;8.49;83.74
66144;SHT31;52947;50.842;6.084;2023-03-14T13:21:01;8.61;84.30
66144;SHT31;52947;50.842;6.084;2023-03-14T13:23:32;8.33;83.60
66144;SHT31;52947;50.842;6.084;2023-03-14T13:26:02;8.25;84.37
66144;SHT31;52947;50.842;6.084;2023-03-14T13:28:30;8.01;86.07
66144;SHT31;52947;50.842;6.084;2023-03-14T13:31:00;7.45;85.72
66144;SHT31;52947;50.842;6.084;2023-03-14T13:33:29;6.83;85.02
66144;SHT31;52947;50.842;6.084;2023-03-14T13:36:00;6.67;85.85
66144;SHT31;52947;50.842;6.084;2023-03-14T13:38:30;6.76;83.74
66144;SHT31;52947;50.842;6.084;2023-03-14T13:41:03;6.44;86.93
66144;SHT31;52947;50.842;6.084;2023-03-14T13:43:33;6.67;87.61
66144;SHT31;52947;50.842;6.084;2023-03-14T13:46:03;6.63;86.15
66144;SHT31;52947;50.842;6.084;2023-03-14T13:48:36;6.71;85.52
66144;SHT31;52947;50.842;6.084;2023-03-14T13:51:11;6.83;85.10
66144;SHT31;52947;50.842;6.084;2023-03-14T13:53:43;7.21;86.57
66144;SHT31;52947;50.842;6.084;2023-03-14T13:56:13;7.52;86.87
66144;SHT31;52947;50.842;6.084;2023-03-14T13:58:41;7.61;84.56
66144;SHT31;52947;50.842;6.084;2023-03-14T14:01:15;7.82;87.51
66144;SHT31;52947;50.842;6.084;2023-03-14T14:03:46;7.96;84.72
66144;SHT31;52947;50.842;6.084;2023-03-14T14:06:26;7.83;84.33
66144;SHT31;52947;50.842;6.084;2023-03-14T14:08:56;8.04;84.51
66144;SHT31;52947;50.842;6.084;2023-03-14T14:11:34;7.96;84.29
66144;SHT31;52947;50.842;6.084;2023-03-14T14:14:20;7.83;85.63
66144;SHT31;52947;50.842;6.084;2023-03-14T14:16:50;7.69;84.20
66144;SHT31;52947;50.842;6.084;2023-03-14T14:19:21;7.90;85.39
66144;SHT31;52947;50.842;6.084;2023-03-14T14:21:50;8.21;85.18
66144;SHT31;52947;50.842;6.084;2023-03-14T14:24:21;7.98;84.10
66144;SHT31;52947;50.842;6.084;2023-03-14T14:26:52;8.04;84.30
66144;SHT31;52947;50.842;6.084;2023-03-14T14:29:26;8.01;82.98
66144;SHT31;52947;50.842;6.084;2023-03-14T14:32:02;8.06;84.10
66144;SHT31;52947;50.842;6.084;2023-03-14T14:34:38;7.93;84.07
66144;SHT31;52947;50.842;6.084;2023-03-14T14:37:18;8.04;82.96
66144;SHT31;52947;50.842;6.084;2023-03-14T14:39:47;8.23;84.92
66144;SHT31;52947;50.842;6.084;2023-03-14T14:42:19;8.44;84.37
66144;SHT31;52947;50.842;6.084;2023-03-14T14:44:49;8.79;83.51
66144;SHT31;52947;50.842;6.084;2023-03-14T14:47:20;9.05;82.72
66144;SHT31;52947;50.842;6.084;2023-03-14T14:49:50;9.16;82.82
66144;SHT31;52947;50.842;6.084;2023-03-14T14:52:20;9.26;81.31
66144;SHT31;52947;50.842;6.084;2023-03-14T14:54:52;9.20;81.82
66144;SHT31;52947;50.842;6.084;2023-03-14T14:57:25;9.41;83.02
66144;SHT31;52947;50.842;6.084;2023-03-14T14:59:56;9.43;82.11
66144;SHT31;52947;50.842;6.084;2023-03-14T15:02:29;9.34;80.92
66144;SHT31;52947;50.842;6.084;2023-03-14T15:04:58;9.33;82.68
66144;SHT31;52947;50.842;6.084;2023-03-14T15:07:25;9.50;81.69
66144;SHT31;52947;50.842;6.084;2023-03-14T15:09:53;9.36;79.54
66144;SHT31;52947;50.842;6.084;2023-03-14T15:12:23;9.24;79.59
66144;SHT31;52947;50.842;6.084;2023-03-14T15:14:51;9.26;80.98
66144;SHT31;52947;50.842;6.084;2023-03-14T15:17:19;9.50;81.71
66144;SHT31;52947;50.842;6.084;2023-03-14T15:19:47;9.60;80.68
66144;SHT31;52947;50.842;6.084;2023-03-14T15:22:15;9.61;78.81
66144;SHT31;52947;50.842;6.084;2023-03-14T15:24:43;9.60;81.91
66144;SHT31;52947;50.842;6.084;2023-03-14T15:27:13;9.12;80.36
66144;SHT31;52947;50.842;6.084;2023-03-14T15:29:43;9.15;82.19
66144;SHT31;52947;50.842;6.084;2023-03-14T15:32:13;8.88;80.36
66144;SHT31;52947;50.842;6.084;2023-03-14T15:34:42;8.23;83.31
66144;SHT31;52947;50.842;6.084;2023-03-14T15:37:12;7.93;84.36
66144;SHT31;52947;50.842;6.084;2023-03-14T15:39:42;7.58;84.86
66144;SHT31;52947;50.842;6.084;2023-03-14T15:42:10;7.14;85.84
66144;SHT31;52947;50.842;6.084;2023-03-14T15:44:38;6.94;85.73
66144;SHT31;52947;50.842;6.084;2023-03-14T15:47:08;7.04;86.67
66144;SHT31;52947;50.842;6.084;2023-03-14T15:49:37;7.21;86.67
66144;SHT31;52947;50.842;6.084;2023-03-14T15:52:06;7.07;87.45
66144;SHT31;52947;50.842;6.084;2023-03-14T15:54:34;7.48;88.78
66144;SHT31;52947;50.842;6.084;2023-03-14T15:57:03;7.80;87.19
66144;SHT31;52947;50.842;6.084;2023-03-14T15:59:33;7.31;85.17
66144;SHT31;52947;50.842;6.084;2023-03-14T16:02:01;6.58;86.67
66144;SHT31;52947;50.842;6.084;2023-03-14T16:04:31;6.02;88.19
66144;SHT31;52947;50.842;6.084;2023-03-14T16:06:59;5.88;88.37
66144;SHT31;52947;50.842;6.084;2023-03-14T16:09:26;5.82;88.64
66144;SHT31;52947;50.842;6.084;2023-03-14T16:11:54;5.85;88.32
66144;SHT31;52947;50.842;6.084;2023-03-14T16:14:23;5.68;88.51
66144;SHT31;52947;50.842;6.084;2023-03-14T16:16:51;5.61;89.13
66144;SHT31;52947;50.842;6.084;2023-03-14T16:19:19;5.54;89.15